createdAt,value
2023-07-05T00:03:40.987Z,16.11
2023-07-05T00:08:45.433Z,16.28
2023-07-05T00:13:48.459Z,16.35
2023-07-05T00:18:51.519Z,16.36
2023-07-05T00:23:55.861Z,16.02
2023-07-05T00:28:58.857Z,15.83
2023-07-05T00:34:02.012Z,15.80
2023-07-05T00:39:06.945Z,15.72
2023-07-05T00:44:10.674Z,15.97
2023-07-05T00:49:17.222Z,16.03
2023-07-05T00:54:25.009Z,15.73
2023-07-05T00:59:30.452Z,15.64
2023-07-05T01:04:35.274Z,15.78
2023-07-05T01:09:39.754Z,15.85
2023-07-05T01:14:47.536Z,15.80
2023-07-05T01:20:21.058Z,15.73
2023-07-05T01:25:52.556Z,15.72
2023-07-05T01:31:23.044Z,15.94
2023-07-05T01:36:28.877Z,15.97
2023-07-05T01:41:31.827Z,16.12
2023-07-05T01:46:35.851Z,16.34
2023-07-05T01:51:44.795Z,16.25
2023-07-05T01:56:53.087Z,16.21
2023-07-05T02:01:57.182Z,16.32
2023-07-05T02:07:01.875Z,16.25
2023-07-05T02:12:05.584Z,16.40
2023-07-05T02:17:08.561Z,16.45
2023-07-05T02:22:13.048Z,16.48
2023-07-05T02:27:15.982Z,16.46
2023-07-05T02:32:18.948Z,16.55
2023-07-05T02:37:23.352Z,16.57
2023-07-05T02:42:26.767Z,16.38
2023-07-05T02:47:30.114Z,16.20
2023-07-05T02:52:34.613Z,16.04
2023-07-05T02:57:37.535Z,15.56
2023-07-05T03:02:40.536Z,15.24
2023-07-05T03:07:44.875Z,15.43
2023-07-05T03:12:47.828Z,15.29
2023-07-05T03:17:50.769Z,15.12
2023-07-05T03:22:55.712Z,15.28
2023-07-05T03:27:58.759Z,15.11
2023-07-05T03:33:02.020Z,14.90
2023-07-05T03:38:06.599Z,15.07
2023-07-05T03:43:09.641Z,15.00
2023-07-05T03:48:12.599Z,14.75
2023-07-05T03:53:17.381Z,14.81
2023-07-05T03:58:20.601Z,14.85
2023-07-05T04:03:23.553Z,14.91
2023-07-05T04:08:27.940Z,15.07
2023-07-05T04:13:31.234Z,15.04
2023-07-05T04:18:34.893Z,14.96
2023-07-05T04:23:40.055Z,14.81
2023-07-05T04:28:43.825Z,14.82
2023-07-05T04:33:47.168Z,14.89
2023-07-05T04:38:51.436Z,14.62
2023-07-05T04:43:54.347Z,14.90
2023-07-05T04:48:57.398Z,14.92
2023-07-05T04:54:02.162Z,14.71
2023-07-05T04:59:05.075Z,14.85
2023-07-05T05:04:08.170Z,14.83
2023-07-05T05:09:12.486Z,14.76
2023-07-05T05:14:15.489Z,14.58
2023-07-05T05:19:18.432Z,14.54
2023-07-05T05:24:22.674Z,14.37
2023-07-05T05:29:25.615Z,14.46
2023-07-05T05:34:28.957Z,14.41
2023-07-05T05:39:35.548Z,14.40
2023-07-05T05:44:38.518Z,14.23
2023-07-05T05:49:41.580Z,13.93
2023-07-05T05:54:45.917Z,13.77
2023-07-05T05:59:48.776Z,13.18
2023-07-05T06:04:51.763Z,12.63
2023-07-05T06:09:56.061Z,12.24
2023-07-05T06:14:59.012Z,12.04
2023-07-05T06:20:01.917Z,12.02
2023-07-05T06:25:07.058Z,11.91
2023-07-05T06:30:11.104Z,11.78
2023-07-05T06:35:14.139Z,11.70
2023-07-05T06:40:18.660Z,11.79
2023-07-05T06:45:21.715Z,12.33
2023-07-05T06:50:24.605Z,12.54
2023-07-05T06:55:29.373Z,12.76
2023-07-05T07:00:33.096Z,12.84
2023-07-05T07:05:36.060Z,12.83
2023-07-05T08:40:53.799Z,12.71
2023-07-05T08:46:05.872Z,12.43
2023-07-05T08:51:15.005Z,12.46
2023-07-05T08:56:25.231Z,12.47
2023-07-05T09:01:30.544Z,12.33
2023-07-05T09:06:36.748Z,12.33
2023-07-05T09:11:54.159Z,12.17
2023-07-05T09:17:00.795Z,12.33
2023-07-05T09:22:06.051Z,12.28
2023-07-05T09:27:16.588Z,12.39
2023-07-05T09:32:21.683Z,12.56
2023-07-05T09:37:26.621Z,12.62
2023-07-05T09:42:37.634Z,12.59
2023-07-05T09:47:40.565Z,12.64
2023-07-05T09:52:44.069Z,12.52
2023-07-05T09:57:48.968Z,12.52
2023-07-05T10:02:54.044Z,12.71
2023-07-05T10:07:59.798Z,12.66
2023-07-05T10:13:15.105Z,12.57
2023-07-05T10:31:06.259Z,12.16
2023-07-05T10:36:16.049Z,12.38
2023-07-05T10:41:27.057Z,12.58
2023-07-05T10:46:33.098Z,12.68
2023-07-05T10:51:37.929Z,12.93
2023-07-05T10:56:42.730Z,13.10
2023-07-05T11:01:52.642Z,13.27
2023-07-05T11:07:01.740Z,13.40
2023-07-05T11:12:10.306Z,13.64
2023-07-05T11:17:23.253Z,13.96
2023-07-05T11:22:40.072Z,14.07
2023-07-05T11:27:54.736Z,14.54
2023-07-05T11:33:18.297Z,14.83
2023-07-05T11:39:04.900Z,14.76
2023-07-05T11:44:26.015Z,14.63
2023-07-05T11:49:33.794Z,14.91
2023-07-05T11:54:42.593Z,14.47
2023-07-05T11:59:51.334Z,14.57
2023-07-05T12:04:56.904Z,14.69
2023-07-05T12:10:00.627Z,14.68
2023-07-05T12:15:03.639Z,15.11
2023-07-05T12:20:24.044Z,14.90
2023-07-05T12:25:28.005Z,14.93
2023-07-05T12:30:32.529Z,15.03
2023-07-05T12:35:36.967Z,14.83
2023-07-05T12:40:41.895Z,15.00
2023-07-05T12:45:45.741Z,15.07
2023-07-05T12:50:51.627Z,15.11
2023-07-05T12:55:58.391Z,15.81
2023-07-05T13:01:02.324Z,15.91
2023-07-05T13:06:10.633Z,15.92
2023-07-05T13:11:16.449Z,15.87
2023-07-05T13:16:24.310Z,15.87
2023-07-05T13:21:38.525Z,15.26
2023-07-05T13:26:41.767Z,15.74
2023-07-05T13:31:49.159Z,16.28
2023-07-05T13:36:57.182Z,15.93
2023-07-05T13:42:03.304Z,16.07
2023-07-05T13:47:07.931Z,15.95
2023-07-05T13:52:17.006Z,16.26
2023-07-05T13:57:21.207Z,16.29
2023-07-05T14:02:32.838Z,15.74
2023-07-05T14:07:37.451Z,15.74
2023-07-05T14:12:40.423Z,16.14
2023-07-05T14:17:43.577Z,15.43
2023-07-05T14:22:48.059Z,15.69
2023-07-05T14:27:51.311Z,16.13
2023-07-05T14:32:54.854Z,16.27
2023-07-05T14:37:59.482Z,17.03
2023-07-05T14:43:02.505Z,17.90
2023-07-05T14:48:06.685Z,17.61
2023-07-05T14:53:17.300Z,18.23
2023-07-05T14:58:21.302Z,18.47
2023-07-05T15:03:28.488Z,18.65
2023-07-05T15:08:36.017Z,19.16
2023-07-05T15:13:43.411Z,19.14
2023-07-05T15:18:46.466Z,18.81
2023-07-05T15:23:52.085Z,18.45
2023-07-05T15:28:55.260Z,18.11
2023-07-05T15:33:58.351Z,18.42
2023-07-05T15:39:03.456Z,18.45
2023-07-05T15:44:06.440Z,19.28
2023-07-05T15:49:09.449Z,19.37
2023-07-05T15:54:14.930Z,18.72
2023-07-05T15:59:26.451Z,18.12
2023-07-05T16:04:29.460Z,18.11
2023-07-05T16:09:33.945Z,17.88
2023-07-05T16:14:37.089Z,18.01
2023-07-05T16:19:40.160Z,18.11
2023-07-05T16:24:44.956Z,18.24
2023-07-05T16:29:49.068Z,18.45
2023-07-05T16:34:52.422Z,17.21
2023-07-05T16:39:57.207Z,16.98
2023-07-05T16:45:00.659Z,17.58
2023-07-05T16:50:03.891Z,17.68
2023-07-05T16:55:10.113Z,16.92
2023-07-05T17:00:14.645Z,17.01
2023-07-05T17:05:18.943Z,16.95
2023-07-05T17:10:23.527Z,17.10
2023-07-05T17:15:26.650Z,16.92
2023-07-05T17:20:29.843Z,16.66
2023-07-05T17:25:35.150Z,17.00
2023-07-05T17:30:39.020Z,17.02
2023-07-05T17:35:45.053Z,16.79
2023-07-05T17:40:50.094Z,17.12
2023-07-05T17:46:11.725Z,16.88
2023-07-05T17:51:14.951Z,16.71
2023-07-05T17:56:20.395Z,17.18
2023-07-05T18:01:25.989Z,17.31
2023-07-05T18:06:29.383Z,17.17
2023-07-05T18:11:33.937Z,17.21
2023-07-05T18:16:37.200Z,17.17
2023-07-05T18:21:40.640Z,17.34
2023-07-05T18:26:47.234Z,17.33
2023-07-05T18:31:50.853Z,17.87
2023-07-05T18:36:54.128Z,17.99
2023-07-05T18:41:58.803Z,18.15
2023-07-05T18:47:01.994Z,18.12
2023-07-05T18:52:05.667Z,17.93
2023-07-05T18:57:10.325Z,17.56
2023-07-05T19:02:14.007Z,17.48
2023-07-05T19:07:17.300Z,17.38
2023-07-05T19:12:21.863Z,17.10
2023-07-05T19:17:25.304Z,16.91
2023-07-05T19:22:28.475Z,17.07
2023-07-05T19:27:32.982Z,17.18
2023-07-05T19:32:36.115Z,17.09
2023-07-05T19:37:39.347Z,17.15
2023-07-05T19:42:43.861Z,17.15
2023-07-05T19:47:47.503Z,17.08
2023-07-05T19:52:51.572Z,17.03
2023-07-05T19:57:56.420Z,17.03
2023-07-05T20:02:59.619Z,16.98
2023-07-05T20:08:02.863Z,17.00
2023-07-05T20:13:08.435Z,17.01
2023-07-05T20:18:12.908Z,16.97
2023-07-05T20:23:16.652Z,17.06
2023-07-05T20:28:21.285Z,17.03
2023-07-05T20:33:24.445Z,17.01
2023-07-05T20:38:27.949Z,17.04
2023-07-05T20:43:33.117Z,17.02
2023-07-05T20:48:37.297Z,17.03
2023-07-05T20:53:40.603Z,16.96
2023-07-05T20:58:45.873Z,16.88
2023-07-05T21:03:53.211Z,16.90
2023-07-05T21:08:56.627Z,16.94
2023-07-05T21:14:01.311Z,16.87
2023-07-05T21:19:05.460Z,16.85
2023-07-05T21:24:09.085Z,16.79
2023-07-05T21:29:13.496Z,16.56
2023-07-05T21:34:16.671Z,16.47
2023-07-05T21:39:20.997Z,16.35
2023-07-05T21:44:25.589Z,16.28
2023-07-05T21:49:29.208Z,16.18
2023-07-05T21:54:32.351Z,16.02
2023-07-05T21:59:37.288Z,15.97
2023-07-05T22:04:40.534Z,15.92
2023-07-05T22:09:44.459Z,15.85
2023-07-05T22:14:59.619Z,15.76
2023-07-05T22:20:11.011Z,15.74
2023-07-05T22:25:14.795Z,15.76
2023-07-05T22:30:19.678Z,15.70
2023-07-05T22:35:29.744Z,15.68
2023-07-05T22:40:32.861Z,15.61
2023-07-05T22:45:37.794Z,15.54
2023-07-05T22:50:40.854Z,15.56
2023-07-05T22:55:44.056Z,15.48
2023-07-05T23:00:49.992Z,15.47
2023-07-05T23:05:54.441Z,15.48
2023-07-05T23:11:03.729Z,15.58
2023-07-05T23:16:08.821Z,15.60
2023-07-05T23:21:13.032Z,15.58
2023-07-05T23:26:17.373Z,15.61
2023-07-05T23:31:25.043Z,15.68
2023-07-05T23:36:29.775Z,15.65
2023-07-05T23:41:33.759Z,15.72
2023-07-05T23:46:38.333Z,15.69
2023-07-05T23:51:43.666Z,15.61
2023-07-05T23:56:49.286Z,15.54
